Terminal Aerodrome Forecast
Issued by NWS

Home | Current Version | Previous Version | Text Only | Print | Product List | Glossary On
Versions: 1 2 3 4 5 6 7 8 9 10 11 12 13 14 15 16 17
000
FTUS44 KLZK 021700
TAFLLQ
TAF
KLLQ 021727Z 0218/0318 03008KT P6SM VCSH OVC015
      TEMPO 0218/0222 4SM -RA BR OVC007
     FM030100 VRB03KT 4SM BR VCSH OVC007
     FM030400 VRB03KT 2SM BR VCSH OVC003
     FM030600 15003KT 1SM BR OVC001
     FM031300 15003KT 1/2SM FG OVC003
     FM031600 20004KT 2SM BR OVC003=

USA.gov is the U.S. government's official web portal to all federal, state and local government web resources and services.